1861 NOT_NAMED (1861355S05087)


IBTrACS version v04r00. Visit IBTrACS website for data access.
Please direct all questions to the IBTrACS Q and A forum

Storm track - Intensity - Wind Radii - Intensity Data - Source Data - All data

Summary Information

Storm ID 1861355S05087
Start Dec 21 06Z
End Dec 27 06Z
ATCF IDs
Track status Best track data.

Storm track plot

Map of storm track

Intensity plots

No Intensity information for this storm


Radial wind information

No radial wind information for this storm


Position and Intensity Table

BASIN ISO_TIME_________ NATURE LAT LON
degrees north degrees east
SI 1861-12-21 06:00:00 NR -5.40 86.80
SI 09:00:00 NR -5.64 86.55
SI 12:00:00 NR -5.88 86.30
SI 15:00:00 NR -6.13 86.06
SI 18:00:00 NR -6.37 85.81
SI 21:00:00 NR -6.62 85.57
SI 1861-12-22 00:00:00 NR -6.88 85.34
SI 03:00:00 NR -7.14 85.12
SI 06:00:00 NR -7.40 84.90
SI 09:00:00 NR -7.67 84.69
SI 12:00:00 NR -7.95 84.50
SI 15:00:00 NR -8.22 84.31
SI 18:00:00 NR -8.49 84.14
SI 21:00:00 NR -8.76 83.98
SI 1861-12-23 00:00:00 NR -9.02 83.84
SI 03:00:00 NR -9.27 83.71
SI 06:00:00 NR -9.50 83.60
SI 09:00:00 NR -9.70 83.50
SI 12:00:00 NR -9.89 83.42
SI 15:00:00 NR -10.06 83.36
SI 18:00:00 NR -10.23 83.31
SI 21:00:00 NR -10.39 83.27
SI 1861-12-24 00:00:00 NR -10.56 83.24
SI 03:00:00 NR -10.72 83.22
SI 06:00:00 NR -10.90 83.20
SI 09:00:00 NR -11.06 83.16
SI 12:00:00 NR -11.22 83.13
SI 15:00:00 NR -11.39 83.11
SI 18:00:00 NR -11.58 83.09
SI 21:00:00 NR -11.78 83.08
SI 1861-12-25 00:00:00 NR -12.02 83.08
SI 03:00:00 NR -12.29 83.08
SI 06:00:00 NR -12.60 83.10
SI 09:00:00 NR -13.00 83.13
SI 12:00:00 NR -13.44 83.16
SI 15:00:00 NR -13.92 83.21
SI 18:00:00 NR -14.41 83.26
SI 21:00:00 NR -14.91 83.32
SI 1861-12-26 00:00:00 NR -15.40 83.38
SI 03:00:00 NR -15.87 83.44
SI 06:00:00 NR -16.30 83.50
SI 09:00:00 NR -16.68 83.56
SI 12:00:00 NR -17.02 83.61
SI 15:00:00 NR -17.33 83.66
SI 18:00:00 NR -17.60 83.71
SI 21:00:00 NR -17.85 83.76
SI 1861-12-27 00:00:00 NR -18.07 83.81
SI 03:00:00 NR -18.29 83.85
SI 06:00:00 NR -18.50 83.90

Source Information

Agency Information
USA
TOKYO
CMA
HKO
NEWDELHI
REUNION WMO-Best-Tracks.txt:Line=395:xxxx861057
BOM
NADI
WELLINGTON
DS824
TD9636
TD9635
NEUMANN
MLC

All available IBTrACS Data

SEASON BASIN SUBBASIN ISO_TIME_________ NATURE LAT LON DIST2LAND LANDFALL IFLAG USA SSHS REUNION LAT REUNION LON REUNION TYPE REUNION TNUM STORM SPEED STORM DIR
Year degrees north degrees east km km 1 degrees north degrees east 1 kts degrees
1862 SI MM 1861-12-21 06:00:00 NR -5.40 86.80 1343 1343 _____O________ -1 -5.40 86.80 99 9.90 7 226
1862 SI MM 09:00:00 NR -5.64 86.55 1375 1375 _____P________ -1 -5.64 86.55 99 7 226
1862 SI MM 12:00:00 NR -5.88 86.30 1422 1422 _____P________ -1 -5.88 86.30 99 7 225
1862 SI MM 15:00:00 NR -6.13 86.06 1453 1453 _____P________ -1 -6.13 86.06 99 7 225
1862 SI MM 18:00:00 NR -6.37 85.81 1494 1490 _____P________ -1 -6.37 85.81 99 7 224
1862 SI MM 21:00:00 NR -6.62 85.57 1506 1506 _____P________ -1 -6.62 85.57 99 7 223
1862 SI MM 1861-12-22 00:00:00 NR -6.88 85.34 1526 1526 _____P________ -1 -6.88 85.34 99 7 222
1862 SI MM 03:00:00 NR -7.14 85.12 1540 1540 _____P________ -1 -7.14 85.12 99 7 220
1862 SI MM 06:00:00 NR -7.40 84.90 1565 1565 _____O________ -1 -7.40 84.90 99 9.90 7 218
1862 SI MM 09:00:00 NR -7.67 84.69 1590 1587 _____P________ -1 -7.67 84.69 99 7 216
1862 SI MM 12:00:00 NR -7.95 84.50 1605 1605 _____P________ -1 -7.95 84.50 99 7 215
1862 SI MM 15:00:00 NR -8.22 84.31 1632 1632 _____P________ -1 -8.22 84.31 99 7 213
1862 SI MM 18:00:00 NR -8.49 84.14 1659 1659 _____P________ -1 -8.49 84.14 99 6 211
1862 SI MM 21:00:00 NR -8.76 83.98 1689 1687 _____P________ -1 -8.76 83.98 99 6 210
1862 SI MM 1861-12-23 00:00:00 NR -9.02 83.84 1706 1706 _____P________ -1 -9.02 83.84 99 6 208
1862 SI MM 03:00:00 NR -9.27 83.71 1737 1737 _____P________ -1 -9.27 83.71 99 5 206
1862 SI MM 06:00:00 NR -9.50 83.60 1757 1757 _____O________ -1 -9.50 83.60 99 9.90 5 205
1862 SI MM 09:00:00 NR -9.70 83.50 1777 1777 _____P________ -1 -9.70 83.50 99 4 204
1862 SI MM 12:00:00 NR -9.89 83.42 1797 1797 _____P________ -1 -9.89 83.42 99 4 201
1862 SI MM 15:00:00 NR -10.06 83.36 1819 1817 _____P________ -1 -10.06 83.36 99 4 198
1862 SI MM 18:00:00 NR -10.23 83.31 1828 1828 _____P________ -1 -10.23 83.31 99 3 195
1862 SI MM 21:00:00 NR -10.39 83.27 1850 1850 _____P________ -1 -10.39 83.27 99 3 191
1862 SI MM 1861-12-24 00:00:00 NR -10.56 83.24 1871 1871 _____P________ -1 -10.56 83.24 99 3 189
1862 SI MM 03:00:00 NR -10.72 83.22 1882 1882 _____P________ -1 -10.72 83.22 99 3 186
1862 SI MM 06:00:00 NR -10.90 83.20 1904 1904 _____O________ -1 -10.90 83.20 99 9.90 3 189
1862 SI MM 09:00:00 NR -11.06 83.16 1926 1924 _____P________ -1 -11.06 83.16 99 3 191
1862 SI MM 12:00:00 NR -11.22 83.13 1935 1935 _____P________ -1 -11.22 83.13 99 3 191
1862 SI MM 15:00:00 NR -11.39 83.11 1958 1958 _____P________ -1 -11.39 83.11 99 4 187
1862 SI MM 18:00:00 NR -11.58 83.09 1980 1980 _____P________ -1 -11.58 83.09 99 4 186
1862 SI MM 21:00:00 NR -11.78 83.08 2002 2002 _____P________ -1 -11.78 83.08 99 4 184
1862 SI MM 1861-12-25 00:00:00 NR -12.02 83.08 2024 2024 _____P________ -1 -12.02 83.08 99 5 177
1862 SI MM 03:00:00 NR -12.29 83.08 2057 2057 _____P________ -1 -12.29 83.08 99 6 0
1862 SI MM 06:00:00 NR -12.60 83.10 2091 2091 _____O________ -1 -12.60 83.10 99 9.90 7 178
1862 SI MM 09:00:00 NR -13.00 83.13 2135 2135 _____P________ -1 -13.00 83.13 99 9 176
1862 SI MM 12:00:00 NR -13.44 83.16 2169 2169 _____P________ -1 -13.44 83.16 99 9 175
1862 SI MM 15:00:00 NR -13.92 83.21 2202 2202 _____P________ -1 -13.92 83.21 99 10 174
1862 SI MM 18:00:00 NR -14.41 83.26 2228 2228 _____P________ -1 -14.41 83.26 99 10 174
1862 SI MM 21:00:00 NR -14.91 83.32 2263 2263 _____P________ -1 -14.91 83.32 99 10 174
1862 SI MM 1861-12-26 00:00:00 NR -15.40 83.38 2291 2291 _____P________ -1 -15.40 83.38 99 10 173
1862 SI MM 03:00:00 NR -15.87 83.44 2327 2319 _____P________ -1 -15.87 83.44 99 9 173
1862 SI MM 06:00:00 NR -16.30 83.50 2349 2349 _____O________ -1 -16.30 83.50 99 9.90 8 172
1862 SI MM 09:00:00 NR -16.68 83.56 2372 2372 _____P________ -1 -16.68 83.56 99 7 172
1862 SI MM 12:00:00 NR -17.02 83.61 2395 2395 _____P________ -1 -17.02 83.61 99 7 171
1862 SI MM 15:00:00 NR -17.33 83.66 2411 2411 _____P________ -1 -17.33 83.66 99 6 170
1862 SI MM 18:00:00 NR -17.60 83.71 2435 2435 _____P________ -1 -17.60 83.71 99 5 169
1862 SI MM 21:00:00 NR -17.85 83.76 2444 2444 _____P________ -1 -17.85 83.76 99 5 170
1862 SI MM 1861-12-27 00:00:00 NR -18.07 83.81 2468 2468 _____P________ -1 -18.07 83.81 99 5 169
1862 SI MM 03:00:00 NR -18.29 83.85 2477 2477 _____P________ -1 -18.29 83.85 99 4 168
1862 SI MM 06:00:00 NR -18.50 83.90 2493 _____O________ -1 -18.50 83.90 99 9.90 4 170